createdAt,value
2022-11-30T00:03:03.389Z,97446.00
2022-11-30T00:08:04.249Z,97455.00
2022-11-30T00:13:05.560Z,97458.00
2022-11-30T00:18:06.290Z,97452.00
2022-11-30T00:23:09.306Z,97453.00
2022-11-30T00:28:10.021Z,97446.00
2022-11-30T00:33:11.185Z,97451.00
2022-11-30T00:38:11.879Z,97442.00
2022-11-30T00:43:12.716Z,97443.00
2022-11-30T00:48:13.620Z,97442.00
2022-11-30T00:53:14.756Z,97435.00
2022-11-30T00:58:15.594Z,97437.00
2022-11-30T01:03:16.832Z,97447.00
2022-11-30T01:08:17.780Z,97442.00
2022-11-30T01:13:18.845Z,97445.00
2022-11-30T01:18:19.586Z,97448.00
2022-11-30T01:23:20.326Z,97448.00
2022-11-30T01:28:21.069Z,97455.00
2022-11-30T01:33:22.135Z,97444.00
2022-11-30T01:38:22.870Z,97447.00
2022-11-30T01:43:41.667Z,97438.00
2022-11-30T01:48:42.418Z,97441.00
2022-11-30T01:53:43.202Z,97434.00
2022-11-30T01:58:43.975Z,97437.00
2022-11-30T02:04:13.189Z,97438.00
2022-11-30T02:09:17.439Z,97444.00
2022-11-30T02:14:46.078Z,97442.00
2022-11-30T02:21:59.210Z,97442.00
2022-11-30T02:27:37.333Z,97437.00
2022-11-30T02:32:53.533Z,97432.00
2022-11-30T02:37:56.595Z,97441.00
2022-11-30T02:43:00.974Z,97435.00
2022-11-30T02:48:08.668Z,97444.00
2022-11-30T02:53:09.731Z,97440.00
2022-11-30T02:58:11.676Z,97453.00
2022-11-30T03:03:12.439Z,97446.00
2022-11-30T03:08:13.208Z,97444.00
2022-11-30T03:13:14.232Z,97449.00
2022-11-30T03:18:15.057Z,97449.00
2022-11-30T03:23:15.806Z,97455.00
2022-11-30T03:28:16.547Z,97460.00
2022-11-30T03:33:17.368Z,97459.00
2022-11-30T03:38:18.286Z,97468.00
2022-11-30T03:43:19.018Z,97465.00
2022-11-30T03:48:19.860Z,97467.00
2022-11-30T03:53:22.308Z,97463.00
2022-11-30T03:58:24.067Z,97459.00
2022-11-30T04:03:24.816Z,97459.00
2022-11-30T04:08:26.178Z,97466.00
2022-11-30T04:13:28.687Z,97461.00
2022-11-30T04:18:31.978Z,97461.00
2022-11-30T04:23:35.641Z,97456.00
2022-11-30T04:28:36.351Z,97469.00
2022-11-30T04:33:37.139Z,97473.00
2022-11-30T04:38:38.127Z,97470.00
2022-11-30T04:43:39.211Z,97472.00
2022-11-30T04:48:40.036Z,97475.00
2022-11-30T04:53:40.793Z,97476.00
2022-11-30T04:58:41.507Z,97477.00
2022-11-30T05:03:42.259Z,97477.00
2022-11-30T05:08:42.980Z,97483.00
2022-11-30T05:13:43.790Z,97474.00
2022-11-30T05:18:44.684Z,97475.00
2022-11-30T05:23:47.180Z,97476.00
2022-11-30T05:28:48.117Z,97478.00
2022-11-30T05:33:52.950Z,97471.00
2022-11-30T05:38:53.789Z,97471.00
2022-11-30T05:43:55.539Z,97477.00
2022-11-30T05:48:56.344Z,97472.00
2022-11-30T05:53:57.756Z,97482.00
2022-11-30T05:58:58.666Z,97487.00
2022-11-30T06:03:59.527Z,97489.00
2022-11-30T06:09:00.278Z,97488.00
2022-11-30T06:14:01.372Z,97485.00
2022-11-30T06:19:02.852Z,97486.00
2022-11-30T06:24:04.208Z,97489.00
2022-11-30T06:29:05.100Z,97487.00
2022-11-30T06:34:05.904Z,97495.00
2022-11-30T06:39:08.442Z,97499.00
2022-11-30T06:44:10.266Z,97498.00
2022-11-30T06:49:11.322Z,97500.00
2022-11-30T06:54:12.042Z,97506.00
2022-11-30T06:59:12.801Z,97506.00
2022-11-30T07:04:14.045Z,97510.00
2022-11-30T07:09:15.163Z,97513.00
2022-11-30T07:14:15.943Z,97510.00
2022-11-30T07:19:16.872Z,97516.00
2022-11-30T07:24:35.921Z,97519.00
2022-11-30T07:29:36.783Z,97522.00
2022-11-30T07:34:37.538Z,97514.00
2022-11-30T07:39:38.344Z,97521.00
2022-11-30T07:44:39.076Z,97522.00
2022-11-30T07:49:40.092Z,97521.00
2022-11-30T07:54:40.922Z,97521.00
2022-11-30T07:59:41.661Z,97538.00
2022-11-30T08:04:42.460Z,97541.00
2022-11-30T08:09:44.432Z,97530.00
2022-11-30T08:15:18.385Z,97532.00
2022-11-30T08:20:21.583Z,97531.00
2022-11-30T08:25:22.292Z,97538.00
2022-11-30T08:30:26.463Z,97538.00
2022-11-30T08:35:31.936Z,97535.00
2022-11-30T08:40:32.706Z,97548.00
2022-11-30T08:45:33.618Z,97543.00
2022-11-30T08:50:34.838Z,97548.00
2022-11-30T08:55:35.993Z,97548.00
2022-11-30T09:00:36.723Z,97549.00
2022-11-30T09:05:37.470Z,97550.00
2022-11-30T09:10:38.194Z,97560.00
2022-11-30T09:15:39.056Z,97563.00
2022-11-30T09:20:40.012Z,97566.00
2022-11-30T09:25:40.762Z,97563.00
2022-11-30T09:30:41.531Z,97567.00
2022-11-30T09:35:42.333Z,97568.00
2022-11-30T09:40:43.199Z,97573.00
2022-11-30T09:45:52.458Z,97564.00
2022-11-30T09:50:55.661Z,97579.00
2022-11-30T09:55:59.958Z,97573.00
2022-11-30T10:01:06.645Z,97565.00
2022-11-30T10:06:18.082Z,97567.00
2022-11-30T10:11:40.917Z,97569.00
2022-11-30T10:17:08.390Z,97571.00
2022-11-30T10:22:46.706Z,97566.00
2022-11-30T10:28:49.031Z,97564.00
2022-11-30T10:33:53.633Z,97560.00
2022-11-30T10:39:03.024Z,97558.00
2022-11-30T10:44:17.073Z,97560.00
2022-11-30T10:49:18.857Z,97556.00
2022-11-30T10:54:21.932Z,97551.00
2022-11-30T10:59:27.032Z,97553.00
2022-11-30T11:04:27.918Z,97556.00
2022-11-30T11:09:35.927Z,97548.00
2022-11-30T11:14:38.449Z,97551.00
2022-11-30T11:19:49.959Z,97554.00
2022-11-30T11:25:36.464Z,97550.00
2022-11-30T11:30:37.255Z,97545.00
2022-11-30T11:35:45.446Z,97544.00
2022-11-30T11:41:01.966Z,97551.00
2022-11-30T11:46:13.501Z,97542.00
2022-11-30T11:51:29.507Z,97549.00
2022-11-30T11:56:36.165Z,97548.00
2022-11-30T12:03:19.096Z,97551.00
2022-11-30T12:08:37.649Z,97545.00
2022-11-30T12:13:41.024Z,97538.00
2022-11-30T12:18:53.210Z,97543.00
2022-11-30T12:24:22.786Z,97541.00
2022-11-30T12:30:33.557Z,97542.00
2022-11-30T12:38:53.916Z,97543.00
2022-11-30T12:45:36.602Z,97540.00
2022-11-30T12:50:51.575Z,97533.00
2022-11-30T12:56:21.934Z,97532.00
2022-11-30T13:01:47.918Z,97533.00
2022-11-30T13:07:04.123Z,97535.00
2022-11-30T13:12:13.174Z,97540.00
2022-11-30T13:17:18.664Z,97536.00
2022-11-30T13:22:36.143Z,97534.00
2022-11-30T13:27:48.868Z,97540.00
2022-11-30T13:32:57.822Z,97534.00
2022-11-30T13:38:36.199Z,97539.00
2022-11-30T13:43:46.280Z,97529.00
2022-11-30T13:48:47.683Z,97528.00
2022-11-30T13:53:48.604Z,97526.00
2022-11-30T14:01:01.177Z,97536.00
2022-11-30T14:06:47.785Z,97528.00
2022-11-30T14:11:48.874Z,97539.00
2022-11-30T14:16:49.768Z,97539.00
2022-11-30T14:21:51.407Z,97543.00
2022-11-30T14:26:53.261Z,97534.00
2022-11-30T14:32:02.462Z,97543.00
2022-11-30T14:37:14.196Z,97546.00
2022-11-30T14:42:21.127Z,97556.00
2022-11-30T14:47:34.121Z,97556.00
2022-11-30T14:56:21.789Z,97555.00
2022-11-30T15:01:28.137Z,97552.00
2022-11-30T15:06:31.420Z,97561.00
2022-11-30T15:11:32.257Z,97557.00
2022-11-30T15:16:33.331Z,97559.00
2022-11-30T15:21:34.130Z,97560.00
2022-11-30T15:27:02.079Z,97564.00
2022-11-30T15:32:15.462Z,97557.00
2022-11-30T15:37:17.446Z,97566.00
2022-11-30T15:42:21.637Z,97557.00
2022-11-30T15:47:37.331Z,97562.00
2022-11-30T15:52:44.217Z,97563.00
2022-11-30T15:58:01.909Z,97566.00
2022-11-30T16:03:11.043Z,97559.00
2022-11-30T16:08:17.161Z,97563.00
2022-11-30T16:13:20.818Z,97572.00
2022-11-30T16:18:27.269Z,97572.00
2022-11-30T16:23:28.514Z,97577.00
2022-11-30T16:28:29.289Z,97584.00
2022-11-30T16:33:30.442Z,97580.00
2022-11-30T16:38:31.829Z,97578.00
2022-11-30T16:43:32.864Z,97586.00
2022-11-30T16:48:35.000Z,97590.00
2022-11-30T16:53:35.728Z,97594.00
2022-11-30T16:58:36.995Z,97599.00
2022-11-30T17:03:39.259Z,97606.00
2022-11-30T17:08:41.176Z,97607.00
2022-11-30T17:13:42.012Z,97608.00
2022-11-30T17:18:43.089Z,97610.00
2022-11-30T17:23:44.576Z,97614.00
2022-11-30T17:28:45.541Z,97609.00
2022-11-30T17:33:48.313Z,97606.00
2022-11-30T17:38:49.868Z,97610.00
2022-11-30T17:43:51.303Z,97617.00
2022-11-30T17:48:52.075Z,97620.00
2022-11-30T17:53:52.934Z,97620.00
2022-11-30T17:58:53.811Z,97623.00
2022-11-30T18:03:55.073Z,97625.00
2022-11-30T18:08:56.933Z,97630.00
2022-11-30T18:14:00.054Z,97635.00
2022-11-30T18:19:02.464Z,97638.00
2022-11-30T18:24:04.016Z,97632.00
2022-11-30T18:29:06.038Z,97644.00
2022-11-30T18:34:07.187Z,97649.00
2022-11-30T18:39:08.233Z,97646.00
2022-11-30T18:44:09.515Z,97645.00
2022-11-30T18:49:10.359Z,97641.00
2022-11-30T18:54:11.690Z,97644.00
2022-11-30T18:59:13.772Z,97648.00
2022-11-30T19:04:14.553Z,97653.00
2022-11-30T19:09:15.498Z,97665.00
2022-11-30T19:14:16.997Z,97659.00
2022-11-30T19:19:18.109Z,97656.00
2022-11-30T19:24:19.169Z,97652.00
2022-11-30T19:29:19.995Z,97659.00
2022-11-30T19:34:20.784Z,97665.00
2022-11-30T19:39:21.522Z,97670.00
2022-11-30T19:44:22.377Z,97666.00
2022-11-30T19:49:23.200Z,97672.00
2022-11-30T19:54:24.003Z,97679.00
2022-11-30T19:59:24.911Z,97678.00
2022-11-30T20:04:25.736Z,97687.00
2022-11-30T20:09:26.506Z,97686.00
2022-11-30T20:14:27.443Z,97694.00
2022-11-30T20:19:28.186Z,97691.00
2022-11-30T20:24:29.291Z,97692.00
2022-11-30T20:29:30.017Z,97698.00
2022-11-30T20:34:34.634Z,97695.00
2022-11-30T20:39:39.985Z,97696.00
2022-11-30T20:44:45.328Z,97696.00
2022-11-30T20:49:46.621Z,97698.00
2022-11-30T20:54:47.737Z,97695.00
2022-11-30T20:59:48.718Z,97695.00
2022-11-30T21:04:49.717Z,97703.00
2022-11-30T21:09:51.061Z,97703.00
2022-11-30T21:14:51.921Z,97697.00
2022-11-30T21:19:52.648Z,97704.00
2022-11-30T21:24:53.964Z,97699.00
2022-11-30T21:29:54.678Z,97691.00
2022-11-30T21:34:55.525Z,97702.00
2022-11-30T21:39:56.274Z,97697.00
2022-11-30T21:44:57.238Z,97700.00
2022-11-30T21:49:58.919Z,97697.00
2022-11-30T21:54:59.779Z,97702.00
2022-11-30T22:00:01.214Z,97695.00
2022-11-30T22:05:02.106Z,97704.00
2022-11-30T22:10:03.203Z,97702.00
2022-11-30T22:15:06.391Z,97699.00
2022-11-30T22:20:08.116Z,97697.00
2022-11-30T22:25:08.884Z,97700.00
2022-11-30T22:30:11.022Z,97707.00
2022-11-30T22:35:11.888Z,97701.00
2022-11-30T22:40:13.550Z,97702.00
2022-11-30T22:45:14.449Z,97701.00
2022-11-30T22:50:15.413Z,97703.00
2022-11-30T22:55:16.407Z,97693.00
2022-11-30T23:00:17.703Z,97697.00
2022-11-30T23:05:18.442Z,97690.00
2022-11-30T23:10:19.200Z,97693.00
2022-11-30T23:15:20.000Z,97695.00
2022-11-30T23:20:21.742Z,97688.00
2022-11-30T23:25:22.734Z,97691.00
2022-11-30T23:30:23.907Z,97686.00
2022-11-30T23:35:24.887Z,97681.00
2022-11-30T23:40:25.673Z,97686.00
2022-11-30T23:45:26.493Z,97682.00
2022-11-30T23:50:27.268Z,97681.00
2022-11-30T23:55:28.217Z,97682.00
